createdAt,value
2023-05-05T00:01:26.957Z,64.54
2023-05-05T00:03:53.623Z,64.90
2023-05-05T00:06:20.201Z,65.16
2023-05-05T00:08:47.137Z,65.49
2023-05-05T00:11:13.597Z,65.61
2023-05-05T00:13:40.156Z,66.02
2023-05-05T00:16:06.960Z,65.77
2023-05-05T00:18:33.834Z,65.88
2023-05-05T00:21:00.279Z,65.80
2023-05-05T00:23:26.792Z,64.98
2023-05-05T00:25:53.357Z,65.15
2023-05-05T00:28:19.997Z,64.76
2023-05-05T00:30:46.647Z,65.38
2023-05-05T00:33:13.259Z,65.43
2023-05-05T00:35:39.834Z,65.80
2023-05-05T00:38:07.005Z,65.30
2023-05-05T00:40:33.640Z,65.29
2023-05-05T00:43:00.172Z,65.98
2023-05-05T00:45:26.876Z,66.39
2023-05-05T00:47:55.006Z,66.96
2023-05-05T00:50:27.002Z,66.87
2023-05-05T00:52:56.145Z,67.05
2023-05-05T00:55:22.815Z,67.58
2023-05-05T00:57:49.690Z,66.97
2023-05-05T01:00:16.798Z,66.96
2023-05-05T01:02:44.113Z,66.52
2023-05-05T01:05:13.256Z,66.51
2023-05-05T01:08:02.772Z,66.60
2023-05-05T01:10:45.033Z,66.46
2023-05-05T01:13:32.132Z,66.38
2023-05-05T01:16:14.816Z,66.75
2023-05-05T01:18:44.078Z,67.80
2023-05-05T01:21:23.401Z,68.24
2023-05-05T01:24:17.783Z,68.76
2023-05-05T01:27:05.737Z,69.58
2023-05-05T01:29:35.726Z,71.21
2023-05-05T01:32:10.583Z,71.50
2023-05-05T01:34:43.827Z,71.97
2023-05-05T01:37:18.203Z,72.35
2023-05-05T01:39:51.370Z,72.98
2023-05-05T01:42:20.038Z,73.60
2023-05-05T01:44:48.207Z,73.75
2023-05-05T01:47:18.527Z,73.70
2023-05-05T01:49:47.248Z,74.42
2023-05-05T01:52:16.134Z,74.93
2023-05-05T01:54:45.103Z,75.72
2023-05-05T01:57:12.794Z,75.79
2023-05-05T01:59:39.926Z,76.23
2023-05-05T02:02:10.130Z,76.45
2023-05-05T02:04:41.036Z,76.73
2023-05-05T02:07:08.763Z,76.89
2023-05-05T02:09:36.988Z,77.11
2023-05-05T02:12:05.156Z,76.94
2023-05-05T02:14:32.764Z,77.16
2023-05-05T02:17:01.331Z,77.43
2023-05-05T02:19:31.850Z,77.78
2023-05-05T02:21:58.464Z,81.00
2023-05-05T02:24:26.491Z,82.75
2023-05-05T02:26:56.577Z,84.42
2023-05-05T02:29:34.314Z,84.99
2023-05-05T02:32:14.202Z,85.72
2023-05-05T02:34:42.791Z,87.05
2023-05-05T02:37:19.634Z,87.55
2023-05-05T02:40:01.941Z,87.78
2023-05-05T02:42:36.720Z,88.67
2023-05-05T02:45:10.831Z,88.52
2023-05-05T02:47:40.755Z,88.83
2023-05-05T02:50:08.940Z,88.79
2023-05-05T02:52:38.015Z,89.17
2023-05-05T02:55:05.816Z,89.29
2023-05-05T02:58:13.882Z,88.99
2023-05-05T03:00:46.169Z,89.43
2023-05-05T03:03:22.157Z,89.55
2023-05-05T03:06:13.840Z,89.74
2023-05-05T03:09:01.579Z,88.11
2023-05-05T03:11:44.329Z,89.96
2023-05-05T03:14:17.171Z,90.52
2023-05-05T03:16:46.401Z,91.19
2023-05-05T03:19:15.742Z,91.23
2023-05-05T03:21:43.075Z,91.37
2023-05-05T03:24:19.096Z,90.85
2023-05-05T03:26:54.419Z,91.22
2023-05-05T03:29:25.314Z,90.86
2023-05-05T03:31:52.573Z,91.14
2023-05-05T03:34:19.252Z,91.51
2023-05-05T03:36:47.673Z,91.40
2023-05-05T03:39:15.736Z,91.56
2023-05-05T03:41:42.201Z,91.02
2023-05-05T03:44:10.482Z,91.92
2023-05-05T03:46:37.356Z,91.76
2023-05-05T03:49:07.125Z,92.52
2023-05-05T03:51:33.776Z,92.37
2023-05-05T03:54:00.234Z,92.50
2023-05-05T03:56:27.004Z,93.29
2023-05-05T03:58:53.548Z,93.11
2023-05-05T04:01:20.534Z,93.24
2023-05-05T04:03:47.216Z,93.22
2023-05-05T04:06:13.808Z,93.41
2023-05-05T04:08:41.337Z,93.81
2023-05-05T04:11:07.951Z,93.46
2023-05-05T04:13:35.015Z,93.80
2023-05-05T04:16:02.500Z,94.15
2023-05-05T04:18:29.523Z,93.96
2023-05-05T04:20:56.454Z,94.41
2023-05-05T04:23:23.245Z,94.19
2023-05-05T04:25:50.464Z,94.09
2023-05-05T04:28:19.053Z,94.00
2023-05-05T04:30:47.133Z,94.67
2023-05-05T04:33:13.755Z,94.32
2023-05-05T04:35:40.611Z,94.42
2023-05-05T04:38:07.075Z,94.53
2023-05-05T04:40:33.748Z,94.32
2023-05-05T04:43:01.301Z,94.32
2023-05-05T04:45:28.941Z,94.68
2023-05-05T04:47:55.751Z,94.50
2023-05-05T04:50:22.460Z,94.32
2023-05-05T04:52:50.773Z,94.62
2023-05-05T04:55:19.129Z,94.24
2023-05-05T04:57:45.632Z,93.85
2023-05-05T05:00:12.693Z,93.92
2023-05-05T05:02:39.277Z,87.79
2023-05-05T05:05:06.289Z,81.20
2023-05-05T05:07:33.050Z,82.55
2023-05-05T05:09:59.514Z,79.28
2023-05-05T05:12:26.048Z,71.30
2023-05-05T05:14:52.510Z,66.08
2023-05-05T05:17:20.471Z,61.08
2023-05-05T05:19:47.128Z,58.52
2023-05-05T05:22:13.774Z,56.53
2023-05-05T05:24:42.325Z,54.41
2023-05-05T05:27:11.826Z,52.73
2023-05-05T05:29:41.440Z,51.23
2023-05-05T05:32:08.143Z,50.24
2023-05-05T05:34:35.093Z,49.13
2023-05-05T05:37:02.655Z,48.35
2023-05-05T05:39:29.350Z,48.94
2023-05-05T05:41:56.021Z,48.28
2023-05-05T05:44:23.127Z,48.61
2023-05-05T05:46:49.641Z,48.39
2023-05-05T05:49:17.223Z,48.33
2023-05-05T05:51:43.666Z,49.02
2023-05-05T05:54:10.195Z,48.86
2023-05-05T05:56:36.890Z,49.63
2023-05-05T05:59:04.824Z,50.74
2023-05-05T06:01:31.600Z,50.16
2023-05-05T06:03:58.297Z,50.05
2023-05-05T06:06:24.983Z,51.29
2023-05-05T06:08:51.472Z,51.95
2023-05-05T06:11:18.299Z,53.83
2023-05-05T06:13:44.950Z,53.96
2023-05-05T06:16:14.303Z,54.44
2023-05-05T06:18:43.866Z,54.93
2023-05-05T06:21:10.368Z,55.31
2023-05-05T06:23:37.006Z,57.26
2023-05-05T06:26:06.260Z,57.46
2023-05-05T06:28:32.789Z,57.54
2023-05-05T06:30:59.432Z,58.56
2023-05-05T06:33:25.984Z,59.04
2023-05-05T06:35:53.144Z,58.65
2023-05-05T06:38:19.906Z,59.14
2023-05-05T06:40:49.927Z,58.96
2023-05-05T06:43:17.212Z,59.22
2023-05-05T06:45:51.072Z,59.65
2023-05-05T06:48:18.473Z,60.46
2023-05-05T06:50:45.091Z,60.23
2023-05-05T06:53:11.703Z,59.51
2023-05-05T06:55:38.180Z,59.65
2023-05-05T06:58:04.666Z,60.37
2023-05-05T07:00:31.646Z,60.36
2023-05-05T07:02:58.371Z,60.17
2023-05-05T07:05:24.957Z,60.84
2023-05-05T07:07:52.657Z,60.68
2023-05-05T07:10:19.735Z,61.29
2023-05-05T07:12:46.748Z,59.69
2023-05-05T07:15:26.926Z,59.59
2023-05-05T07:17:55.025Z,59.78
2023-05-05T07:20:21.623Z,59.94
2023-05-05T07:22:48.209Z,59.14
2023-05-05T07:25:14.727Z,60.46
2023-05-05T07:27:41.418Z,60.10
2023-05-05T07:30:13.012Z,60.08
2023-05-05T07:32:41.074Z,58.74
2023-05-05T07:35:07.784Z,58.52
2023-05-05T07:37:34.411Z,57.71
2023-05-05T07:40:00.883Z,57.50
2023-05-05T07:42:27.505Z,56.68
2023-05-05T07:44:53.991Z,56.70
2023-05-05T07:47:20.838Z,56.29
2023-05-05T07:49:47.426Z,56.29
2023-05-05T07:52:13.875Z,56.46
2023-05-05T07:54:41.235Z,55.24
2023-05-05T07:57:08.160Z,55.33
2023-05-05T07:59:35.185Z,55.32
2023-05-05T08:02:01.692Z,54.27
2023-05-05T08:04:28.190Z,54.99
2023-05-05T08:06:54.676Z,54.49
2023-05-05T08:09:21.201Z,55.59
2023-05-05T08:11:47.708Z,52.94
2023-05-05T08:14:15.075Z,52.45
2023-05-05T08:16:41.596Z,53.92
2023-05-05T08:19:21.053Z,52.24
2023-05-05T08:21:51.721Z,51.16
2023-05-05T08:24:18.333Z,51.54
2023-05-05T08:26:44.809Z,52.47
2023-05-05T08:29:11.321Z,52.55
2023-05-05T08:31:38.036Z,51.55
2023-05-05T08:34:05.654Z,52.18
2023-05-05T08:36:33.119Z,50.65
2023-05-05T08:38:59.876Z,51.80
2023-05-05T08:41:26.653Z,51.68
2023-05-05T08:43:53.296Z,52.10
2023-05-05T08:46:20.126Z,51.94
2023-05-05T08:48:48.859Z,52.02
2023-05-05T08:51:19.439Z,53.29
2023-05-05T08:53:55.305Z,53.76
2023-05-05T08:56:22.328Z,52.44
2023-05-05T08:58:50.863Z,53.92
2023-05-05T09:01:18.334Z,53.32
2023-05-05T09:03:46.205Z,53.44
2023-05-05T09:06:13.072Z,54.15
2023-05-05T09:08:40.330Z,53.53
2023-05-05T09:11:06.872Z,53.62
2023-05-05T09:13:33.473Z,53.79
2023-05-05T09:16:00.308Z,53.10
2023-05-05T09:18:27.177Z,54.87
2023-05-05T09:20:53.674Z,54.17
2023-05-05T09:23:21.360Z,53.76
2023-05-05T09:26:10.623Z,53.59
2023-05-05T09:28:37.439Z,53.88
2023-05-05T09:31:15.788Z,53.93
2023-05-05T09:33:43.416Z,54.48
2023-05-05T09:36:09.999Z,54.59
2023-05-05T09:38:36.761Z,54.46
2023-05-05T09:41:03.286Z,55.40
2023-05-05T09:43:29.712Z,55.00
2023-05-05T09:46:09.683Z,55.89
2023-05-05T09:48:36.298Z,57.14
2023-05-05T09:51:02.976Z,57.48
2023-05-05T09:53:38.886Z,58.07
2023-05-05T09:56:05.916Z,58.50
2023-05-05T09:58:32.463Z,58.57
2023-05-05T10:00:59.154Z,57.26
2023-05-05T10:03:26.119Z,58.00
2023-05-05T10:05:55.569Z,57.23
2023-05-05T10:08:27.817Z,57.83
2023-05-05T10:11:06.738Z,57.22
2023-05-05T10:13:37.352Z,57.90
2023-05-05T10:16:04.912Z,56.71
2023-05-05T10:18:32.445Z,61.67
2023-05-05T10:21:01.192Z,67.74
2023-05-05T10:23:35.907Z,75.94
2023-05-05T10:26:06.267Z,76.23
2023-05-05T10:28:50.438Z,72.85
2023-05-05T10:31:25.638Z,80.10
2023-05-05T10:34:31.422Z,79.09
2023-05-05T10:37:00.303Z,78.93
2023-05-05T10:39:27.816Z,80.75
2023-05-05T10:41:54.281Z,81.58
2023-05-05T10:44:22.244Z,80.92
2023-05-05T10:46:49.316Z,81.41
2023-05-05T10:49:33.928Z,80.09
2023-05-05T10:52:18.682Z,82.68
2023-05-05T10:55:11.278Z,83.64
2023-05-05T10:57:41.737Z,85.28
2023-05-05T11:00:09.216Z,86.99
2023-05-05T11:02:36.175Z,86.34
2023-05-05T11:05:17.935Z,86.41
2023-05-05T11:07:46.366Z,87.63
2023-05-05T11:10:14.937Z,88.17
2023-05-05T11:13:10.934Z,87.18
2023-05-05T11:15:38.046Z,87.47
2023-05-05T11:18:07.909Z,87.00
2023-05-05T11:20:40.796Z,87.30
2023-05-05T11:23:07.486Z,87.58
2023-05-05T11:25:37.564Z,88.41
2023-05-05T11:28:08.323Z,87.76
2023-05-05T11:30:53.996Z,88.48
2023-05-05T11:33:28.440Z,89.16
2023-05-05T11:35:56.495Z,90.84
2023-05-05T11:38:55.593Z,90.55
2023-05-05T11:41:34.073Z,92.93
2023-05-05T11:44:18.074Z,91.24
2023-05-05T11:46:53.466Z,92.36
2023-05-05T11:49:37.110Z,92.22
2023-05-05T11:52:12.578Z,92.63
2023-05-05T11:54:50.112Z,93.80
2023-05-05T11:57:20.942Z,94.13
2023-05-05T11:59:53.542Z,93.53
2023-05-05T12:02:21.153Z,95.49
2023-05-05T12:04:48.386Z,95.73
2023-05-05T12:07:16.687Z,95.46
2023-05-05T12:09:47.020Z,95.07
2023-05-05T12:12:14.284Z,95.03
2023-05-05T12:14:52.466Z,94.04
2023-05-05T12:17:21.117Z,94.77
2023-05-05T12:19:55.181Z,96.00
2023-05-05T12:22:27.190Z,96.03
2023-05-05T12:24:55.384Z,96.12
2023-05-05T12:27:22.383Z,96.49
2023-05-05T12:29:49.122Z,95.68
2023-05-05T12:32:27.624Z,94.66
2023-05-05T12:34:57.581Z,94.63
2023-05-05T12:37:27.538Z,95.40
2023-05-05T12:39:55.028Z,95.14
2023-05-05T12:42:22.617Z,95.50
2023-05-05T12:44:49.476Z,96.45
2023-05-05T12:47:30.777Z,95.51
2023-05-05T12:49:58.839Z,96.18
2023-05-05T12:52:40.707Z,95.01
2023-05-05T12:55:07.689Z,94.29
2023-05-05T12:57:34.401Z,95.04
2023-05-05T13:00:13.547Z,95.40
2023-05-05T13:02:40.074Z,94.79
2023-05-05T13:05:07.299Z,96.36
2023-05-05T13:07:34.010Z,96.59
2023-05-05T13:10:09.077Z,95.64
2023-05-05T13:12:35.714Z,96.39
2023-05-05T13:15:02.147Z,96.19
2023-05-05T13:17:28.714Z,96.38
2023-05-05T13:19:55.319Z,96.64
2023-05-05T13:22:21.880Z,96.00
2023-05-05T13:24:52.431Z,95.62
2023-05-05T13:27:20.245Z,95.31
2023-05-05T13:29:47.859Z,95.82
2023-05-05T13:32:14.459Z,96.87
2023-05-05T13:34:42.495Z,96.83
2023-05-05T13:37:08.963Z,97.53
2023-05-05T13:39:35.880Z,97.08
2023-05-05T13:42:02.760Z,96.50
2023-05-05T13:44:29.231Z,96.56
2023-05-05T13:46:55.714Z,96.34
2023-05-05T13:49:22.382Z,96.27
2023-05-05T13:51:48.917Z,95.84
2023-05-05T13:54:15.449Z,96.13
2023-05-05T13:56:42.117Z,95.32
2023-05-05T13:59:09.104Z,95.52
2023-05-05T14:01:35.716Z,94.21
2023-05-05T14:04:05.166Z,95.69
2023-05-05T14:06:32.648Z,94.88
2023-05-05T14:08:59.442Z,94.67
2023-05-05T14:11:25.973Z,94.76
2023-05-05T14:13:52.793Z,94.00
2023-05-05T14:16:19.356Z,93.70
2023-05-05T14:18:45.843Z,93.30
2023-05-05T14:21:12.284Z,93.84
2023-05-05T14:23:38.820Z,94.35
2023-05-05T14:26:05.336Z,93.53
2023-05-05T14:28:31.823Z,92.94
2023-05-05T14:30:58.322Z,91.97
2023-05-05T14:33:24.778Z,91.56
2023-05-05T14:35:51.489Z,90.04
2023-05-05T14:38:18.305Z,91.54
2023-05-05T14:40:44.927Z,91.18
2023-05-05T14:43:11.395Z,89.98
2023-05-05T14:45:37.953Z,90.33
2023-05-05T14:48:04.556Z,90.53
2023-05-05T14:50:31.241Z,90.23
2023-05-05T14:52:57.952Z,89.27
2023-05-05T14:55:25.046Z,90.25
2023-05-05T14:57:51.902Z,89.59
2023-05-05T15:00:18.986Z,91.62
2023-05-05T15:02:45.703Z,88.45
2023-05-05T15:05:12.355Z,88.59
2023-05-05T15:07:40.016Z,90.00
2023-05-05T15:10:07.568Z,90.66
2023-05-05T15:12:34.318Z,88.08
2023-05-05T15:15:00.890Z,87.71
2023-05-05T15:17:27.469Z,88.24
2023-05-05T15:19:53.915Z,88.86
2023-05-05T15:22:20.350Z,88.87
2023-05-05T15:24:46.762Z,87.88
2023-05-05T15:27:13.424Z,87.90
2023-05-05T15:29:39.842Z,87.68
2023-05-05T15:32:06.367Z,90.44
2023-05-05T15:34:32.829Z,87.71
2023-05-05T15:36:59.289Z,88.54
2023-05-05T15:39:25.855Z,86.19
2023-05-05T15:41:55.159Z,87.04
2023-05-05T15:44:21.968Z,86.84
2023-05-05T15:46:50.509Z,86.55
2023-05-05T15:49:17.181Z,86.87
2023-05-05T15:51:43.580Z,87.76
2023-05-05T15:54:10.073Z,84.78
2023-05-05T15:56:36.531Z,84.15
2023-05-05T15:59:03.293Z,85.66
2023-05-05T16:01:29.796Z,83.74
2023-05-05T16:03:57.874Z,85.04
2023-05-05T16:06:24.365Z,86.12
2023-05-05T16:08:51.677Z,86.75
2023-05-05T16:11:19.471Z,86.56
2023-05-05T16:13:47.085Z,85.79
2023-05-05T16:16:13.818Z,85.32
2023-05-05T16:18:40.352Z,86.25
2023-05-05T16:21:06.792Z,85.32
2023-05-05T16:23:33.405Z,85.57
2023-05-05T16:25:59.915Z,85.12
2023-05-05T16:28:26.739Z,85.70
2023-05-05T16:30:53.177Z,85.25
2023-05-05T16:33:19.583Z,85.04
2023-05-05T16:35:46.333Z,84.68
2023-05-05T16:38:13.474Z,83.28
2023-05-05T16:40:40.367Z,83.40
2023-05-05T16:43:06.904Z,83.21
2023-05-05T16:45:33.445Z,86.26
2023-05-05T16:47:59.940Z,82.69
2023-05-05T16:50:26.764Z,83.52
2023-05-05T16:52:53.176Z,83.35
2023-05-05T16:55:22.398Z,83.99
2023-05-05T16:57:48.902Z,81.65
2023-05-05T17:00:15.560Z,81.25
2023-05-05T17:02:42.254Z,81.76
2023-05-05T17:05:09.538Z,81.27
2023-05-05T17:07:36.279Z,82.38
2023-05-05T17:10:02.719Z,83.01
2023-05-05T17:12:29.194Z,82.96
2023-05-05T17:14:55.762Z,80.83
2023-05-05T17:17:22.316Z,81.38
2023-05-05T17:19:49.022Z,81.12
2023-05-05T17:22:15.433Z,82.48
2023-05-05T17:24:42.787Z,83.16
2023-05-05T17:27:09.325Z,81.91
2023-05-05T17:29:40.693Z,83.06
2023-05-05T17:32:08.928Z,82.15
2023-05-05T17:34:35.581Z,83.12
2023-05-05T17:37:02.212Z,82.91
2023-05-05T17:39:29.892Z,82.22
2023-05-05T17:41:56.546Z,82.17
2023-05-05T17:44:23.431Z,80.63
2023-05-05T17:46:49.980Z,81.98
2023-05-05T17:49:16.496Z,82.54
2023-05-05T17:51:42.931Z,81.88
2023-05-05T17:54:09.430Z,83.87
2023-05-05T17:56:36.760Z,82.97
2023-05-05T17:59:03.249Z,81.97
2023-05-05T18:01:29.752Z,82.92
2023-05-05T18:03:56.476Z,82.63
2023-05-05T18:06:22.904Z,83.98
2023-05-05T18:08:49.345Z,83.62
2023-05-05T18:11:15.831Z,84.72
2023-05-05T18:13:43.162Z,84.79
2023-05-05T18:16:09.680Z,84.97
2023-05-05T18:18:36.281Z,85.61
2023-05-05T18:21:02.711Z,85.03
2023-05-05T18:23:29.218Z,85.76
2023-05-05T18:25:55.728Z,84.38
2023-05-05T18:28:22.265Z,84.48
2023-05-05T18:30:48.798Z,84.76
2023-05-05T18:33:15.233Z,86.16
2023-05-05T18:35:41.717Z,86.36
2023-05-05T18:38:08.217Z,86.51
2023-05-05T18:40:34.656Z,86.68
2023-05-05T18:43:01.145Z,86.80
2023-05-05T18:45:27.669Z,86.62
2023-05-05T18:47:54.149Z,86.47
2023-05-05T18:50:20.653Z,86.86
2023-05-05T18:52:47.142Z,87.36
2023-05-05T18:55:13.583Z,87.51
2023-05-05T18:57:40.369Z,87.70
2023-05-05T19:00:07.531Z,88.27
2023-05-05T19:02:34.012Z,87.91
2023-05-05T19:05:00.843Z,88.30
2023-05-05T19:07:35.297Z,88.94
2023-05-05T19:10:14.764Z,89.26
2023-05-05T19:12:41.426Z,90.19
2023-05-05T19:15:08.677Z,90.37
2023-05-05T19:17:35.306Z,89.90
2023-05-05T19:20:02.007Z,90.77
2023-05-05T19:22:28.630Z,91.17
2023-05-05T19:24:55.142Z,91.01
2023-05-05T19:27:21.647Z,91.41
2023-05-05T19:29:52.474Z,91.63
2023-05-05T19:32:21.489Z,91.52
2023-05-05T19:34:48.162Z,91.72
2023-05-05T19:37:14.734Z,91.79
2023-05-05T19:39:44.087Z,92.21
2023-05-05T19:42:10.627Z,92.56
2023-05-05T19:44:37.116Z,92.52
2023-05-05T19:47:04.584Z,92.83
2023-05-05T19:49:31.035Z,92.57
2023-05-05T19:51:58.753Z,92.75
2023-05-05T19:54:25.541Z,92.96
2023-05-05T19:56:52.060Z,93.22
2023-05-05T19:59:18.571Z,93.53
2023-05-05T20:01:45.055Z,93.65
2023-05-05T20:04:11.680Z,93.56
2023-05-05T20:06:38.360Z,93.19
2023-05-05T20:09:05.214Z,93.49
2023-05-05T20:11:32.135Z,93.72
2023-05-05T20:13:58.636Z,93.50
2023-05-05T20:16:25.689Z,93.24
2023-05-05T20:18:52.213Z,93.45
2023-05-05T20:21:18.837Z,93.65
2023-05-05T20:23:46.131Z,93.90
2023-05-05T20:26:12.963Z,93.14
2023-05-05T20:28:41.827Z,94.10
2023-05-05T20:31:10.792Z,93.63
2023-05-05T20:33:37.532Z,94.90
2023-05-05T20:36:04.326Z,94.32
2023-05-05T20:38:31.115Z,94.13
2023-05-05T20:40:57.691Z,94.05
2023-05-05T20:43:24.958Z,94.44
2023-05-05T20:45:51.673Z,94.66
2023-05-05T20:48:18.260Z,94.78
2023-05-05T20:50:44.746Z,95.55
2023-05-05T20:53:13.855Z,95.74
2023-05-05T20:55:40.694Z,96.15
2023-05-05T20:58:07.390Z,95.22
2023-05-05T21:00:34.029Z,95.82
2023-05-05T21:03:02.434Z,95.63
2023-05-05T21:05:31.444Z,95.43
2023-05-05T21:07:59.229Z,95.06
2023-05-05T21:10:29.942Z,95.20
2023-05-05T21:12:56.590Z,95.76
2023-05-05T21:15:23.246Z,96.02
2023-05-05T21:17:49.737Z,95.32
2023-05-05T21:20:16.968Z,95.34
2023-05-05T21:22:43.441Z,95.64
2023-05-05T21:25:11.735Z,95.63
2023-05-05T21:27:38.150Z,96.93
2023-05-05T21:30:05.153Z,97.46
2023-05-05T21:32:31.631Z,97.86
2023-05-05T21:34:58.156Z,97.69
2023-05-05T21:37:24.583Z,97.40
2023-05-05T21:39:51.508Z,97.90
2023-05-05T21:42:18.020Z,97.72
2023-05-05T21:44:44.505Z,97.53
2023-05-05T21:47:11.252Z,97.14
2023-05-05T21:49:37.789Z,96.68
2023-05-05T21:52:04.197Z,97.63
2023-05-05T21:54:30.638Z,97.54
2023-05-05T21:56:57.136Z,97.50
2023-05-05T21:59:23.699Z,96.96
2023-05-05T22:01:50.376Z,97.52
2023-05-05T22:04:16.928Z,97.04
2023-05-05T22:06:43.472Z,97.90
2023-05-05T22:09:10.102Z,97.94
2023-05-05T22:11:36.650Z,98.53
2023-05-05T22:14:03.142Z,98.64
2023-05-05T22:16:29.884Z,98.52
2023-05-05T22:18:56.852Z,97.82
2023-05-05T22:21:23.373Z,98.77
2023-05-05T22:23:49.864Z,99.17
2023-05-05T22:26:16.288Z,99.35
2023-05-05T22:28:42.815Z,99.48
2023-05-05T22:31:09.368Z,99.84
2023-05-05T22:33:36.206Z,99.82
2023-05-05T22:36:02.681Z,100.00
2023-05-05T22:38:29.188Z,100.00
2023-05-05T22:40:55.649Z,100.00
2023-05-05T22:43:22.186Z,100.00
2023-05-05T22:45:48.860Z,100.00
2023-05-05T22:48:15.387Z,100.00
2023-05-05T22:50:41.926Z,100.00
2023-05-05T22:53:08.452Z,100.00
2023-05-05T22:55:34.996Z,100.00
2023-05-05T22:58:01.428Z,100.00
2023-05-05T23:00:28.198Z,100.00
2023-05-05T23:02:54.935Z,100.00
2023-05-05T23:05:22.012Z,100.00
2023-05-05T23:07:48.575Z,100.00
2023-05-05T23:10:15.080Z,100.00
2023-05-05T23:12:41.720Z,100.00
2023-05-05T23:15:09.893Z,100.00
2023-05-05T23:17:36.708Z,100.00
2023-05-05T23:20:04.206Z,100.00
2023-05-05T23:22:30.666Z,100.00
2023-05-05T23:24:57.179Z,100.00
2023-05-05T23:27:23.733Z,100.00
2023-05-05T23:29:50.132Z,100.00
2023-05-05T23:32:16.622Z,100.00
2023-05-05T23:34:43.108Z,100.00
2023-05-05T23:37:09.564Z,100.00
2023-05-05T23:39:36.016Z,100.00
2023-05-05T23:42:02.471Z,100.00
2023-05-05T23:44:28.971Z,100.00
2023-05-05T23:46:55.426Z,100.00
2023-05-05T23:49:22.206Z,100.00
2023-05-05T23:51:48.630Z,100.00
2023-05-05T23:54:15.117Z,100.00
2023-05-05T23:56:42.520Z,100.00
2023-05-05T23:59:09.018Z,100.00
